This is the latest recevied weather packets stored in our database for station/object CE7LGA-10. If no packets are shown the sender has not sent any weather packets the latest 10 day(s).
| Time | Temp. | Humidity | Pressure | Rain* | Wind** | Luminosity | Snow |
|---|---|---|---|---|---|---|---|
| 1787693003 | 14.44° C | 72% | 988 hPa | - | - | - | - |
| 1787692103 | 14.44° C | 71% | 987.9 hPa | - | - | - | - |
| 1787691203 | 15° C | 71% | 988 hPa | - | - | - | - |
| 1787690303 | 14.44° C | 71% | 988.1 hPa | - | - | - | - |
| 1787689403 | 14.44° C | 71% | 988.2 hPa | - | - | - | - |
| 1787688502 | 14.44° C | 71% | 988.7 hPa | - | - | - | - |
| 1787687602 | 14.44° C | 72% | 988.7 hPa | - | - | - | - |
| 1787686702 | 14.44° C | 72% | 987.9 hPa | - | - | - | - |
| 1787685802 | 14.44° C | 72% | 987.8 hPa | - | - | - | - |
| 1787684902 | 14.44° C | 73% | 987.6 hPa | - | - | - | - |
| 1787684002 | 13.89° C | 74% | 987.7 hPa | - | - | - | - |
| 1787683102 | 14.44° C | 73% | 987.9 hPa | - | - | - | - |
| 1787682202 | 14.44° C | 74% | 988.1 hPa | - | - | - | - |
| 1787681302 | 14.44° C | 76% | 988.3 hPa | - | - | - | - |
| 1787680402 | 14.44° C | 75% | 988.5 hPa | - | - | - | - |
| 1787679502 | 14.44° C | 76% | 989 hPa | - | - | - | - |
| 1787678601 | 13.89° C | 76% | 988.7 hPa | - | - | - | - |
| 1787677701 | 13.89° C | 74% | 989 hPa | - | - | - | - |
| 1787676801 | 13.33° C | 74% | 989.3 hPa | - | - | - | - |
| 1787675905 | 13.33° C | 74% | 989.5 hPa | - | - | - | - |
| 1787675005 | 13.33° C | 74% | 989.3 hPa | - | - | - | - |
| 1787674105 | 13.33° C | 75% | 988.8 hPa | - | - | - | - |
| 1787673204 | 13.33° C | 75% | 988.7 hPa | - | - | - | - |
| 1787672304 | 12.22° C | 78% | 989.3 hPa | - | - | - | - |
| 1787671404 | 12.78° C | 76% | 989.6 hPa | - | - | - | - |
* Rain since midnight (hover to see other rain measurements)
** Current wind speed in m/s (hover to see current wind gust speed)